sensor_id;sensor_type;location;lat;lon;timestamp;temperature;humidity
20141;DHT22;10231;47.702;9.826;2022-12-18T00:01:50;-4.20;99.90
20141;DHT22;10231;47.702;9.826;2022-12-18T00:04:22;-4.20;99.90
20141;DHT22;10231;47.702;9.826;2022-12-18T00:06:48;-4.30;99.90
20141;DHT22;10231;47.702;9.826;2022-12-18T00:09:14;-4.20;99.90
20141;DHT22;10231;47.702;9.826;2022-12-18T00:11:39;-4.20;99.90
20141;DHT22;10231;47.702;9.826;2022-12-18T00:14:05;-4.20;99.90
20141;DHT22;10231;47.702;9.826;2022-12-18T00:16:30;-4.20;99.90
20141;DHT22;10231;47.702;9.826;2022-12-18T00:18:58;-4.10;99.90
20141;DHT22;10231;47.702;9.826;2022-12-18T00:21:25;-4.20;99.90
20141;DHT22;10231;47.702;9.826;2022-12-18T00:23:51;-4.20;99.90
20141;DHT22;10231;47.702;9.826;2022-12-18T00:26:23;-4.20;99.90
20141;DHT22;10231;47.702;9.826;2022-12-18T00:28:49;-4.30;99.90
20141;DHT22;10231;47.702;9.826;2022-12-18T00:31:17;-4.30;99.90
20141;DHT22;10231;47.702;9.826;2022-12-18T00:33:43;-4.40;99.90
20141;DHT22;10231;47.702;9.826;2022-12-18T00:36:18;-4.30;99.90
20141;DHT22;10231;47.702;9.826;2022-12-18T00:38:45;-4.40;99.90
20141;DHT22;10231;47.702;9.826;2022-12-18T00:41:12;-4.40;99.90
20141;DHT22;10231;47.702;9.826;2022-12-18T00:43:39;-4.40;99.90
20141;DHT22;10231;47.702;9.826;2022-12-18T00:46:05;-4.30;99.90
20141;DHT22;10231;47.702;9.826;2022-12-18T00:48:31;-4.30;99.90
20141;DHT22;10231;47.702;9.826;2022-12-18T00:50:57;-4.40;99.90
20141;DHT22;10231;47.702;9.826;2022-12-18T00:53:23;-4.40;99.90
20141;DHT22;10231;47.702;9.826;2022-12-18T00:55:48;-4.30;99.90
20141;DHT22;10231;47.702;9.826;2022-12-18T00:58:16;-4.20;99.90
20141;DHT22;10231;47.702;9.826;2022-12-18T01:00:42;-4.20;99.90
20141;DHT22;10231;47.702;9.826;2022-12-18T01:03:09;-4.20;99.90
20141;DHT22;10231;47.702;9.826;2022-12-18T01:05:40;-4.20;99.90
20141;DHT22;10231;47.702;9.826;2022-12-18T01:08:05;-4.20;99.90
20141;DHT22;10231;47.702;9.826;2022-12-18T01:10:31;-4.20;99.90
20141;DHT22;10231;47.702;9.826;2022-12-18T01:12:56;-4.10;99.90
20141;DHT22;10231;47.702;9.826;2022-12-18T01:15:22;-4.10;99.90
20141;DHT22;10231;47.702;9.826;2022-12-18T01:17:47;-4.20;99.90
20141;DHT22;10231;47.702;9.826;2022-12-18T01:20:13;-4.10;99.90
20141;DHT22;10231;47.702;9.826;2022-12-18T01:22:39;-4.10;99.90
20141;DHT22;10231;47.702;9.826;2022-12-18T01:25:05;-4.20;99.90
20141;DHT22;10231;47.702;9.826;2022-12-18T01:27:32;-4.20;99.90
20141;DHT22;10231;47.702;9.826;2022-12-18T01:29:58;-4.30;99.90
20141;DHT22;10231;47.702;9.826;2022-12-18T01:32:23;-4.30;99.90
20141;DHT22;10231;47.702;9.826;2022-12-18T01:34:49;-4.20;99.90
20141;DHT22;10231;47.702;9.826;2022-12-18T01:37:14;-4.10;99.90
20141;DHT22;10231;47.702;9.826;2022-12-18T01:39:40;-4.20;99.90
20141;DHT22;10231;47.702;9.826;2022-12-18T01:42:14;-4.20;99.90
20141;DHT22;10231;47.702;9.826;2022-12-18T01:47:38;-4.30;99.90
20141;DHT22;10231;47.702;9.826;2022-12-18T01:53:02;-4.20;99.90
20141;DHT22;10231;47.702;9.826;2022-12-18T01:55:32;-4.40;99.90
20141;DHT22;10231;47.702;9.826;2022-12-18T01:58:00;-4.40;99.90
20141;DHT22;10231;47.702;9.826;2022-12-18T02:00:27;-4.40;99.90
20141;DHT22;10231;47.702;9.826;2022-12-18T02:02:53;-4.40;99.90
20141;DHT22;10231;47.702;9.826;2022-12-18T02:05:29;-4.30;99.90
20141;DHT22;10231;47.702;9.826;2022-12-18T02:08:22;-4.50;99.90
20141;DHT22;10231;47.702;9.826;2022-12-18T02:11:09;-4.40;99.90
20141;DHT22;10231;47.702;9.826;2022-12-18T02:16:52;-4.50;99.90
20141;DHT22;10231;47.702;9.826;2022-12-18T02:22:36;-4.40;99.90
20141;DHT22;10231;47.702;9.826;2022-12-18T02:25:29;-4.40;99.90
20141;DHT22;10231;47.702;9.826;2022-12-18T02:28:02;-4.40;99.90
20141;DHT22;10231;47.702;9.826;2022-12-18T02:30:31;-4.40;99.90
20141;DHT22;10231;47.702;9.826;2022-12-18T02:33:00;-4.40;99.90
20141;DHT22;10231;47.702;9.826;2022-12-18T02:35:28;-4.40;99.90
20141;DHT22;10231;47.702;9.826;2022-12-18T02:37:55;-4.40;99.90
20141;DHT22;10231;47.702;9.826;2022-12-18T02:40:23;-4.50;99.90
20141;DHT22;10231;47.702;9.826;2022-12-18T02:42:49;-4.40;99.90
20141;DHT22;10231;47.702;9.826;2022-12-18T02:45:15;-4.40;99.90
20141;DHT22;10231;47.702;9.826;2022-12-18T02:47:43;-4.50;99.90
20141;DHT22;10231;47.702;9.826;2022-12-18T02:50:37;-4.50;99.90
20141;DHT22;10231;47.702;9.826;2022-12-18T03:03:47;-4.50;99.90
20141;DHT22;10231;47.702;9.826;2022-12-18T03:06:26;-4.40;99.90
20141;DHT22;10231;47.702;9.826;2022-12-18T03:08:58;-4.50;99.90
20141;DHT22;10231;47.702;9.826;2022-12-18T03:11:25;-4.50;99.90
20141;DHT22;10231;47.702;9.826;2022-12-18T03:14:14;-4.60;99.90
20141;DHT22;10231;47.702;9.826;2022-12-18T03:16:42;-4.70;99.90
20141;DHT22;10231;47.702;9.826;2022-12-18T03:19:16;-4.70;99.90
20141;DHT22;10231;47.702;9.826;2022-12-18T03:21:49;-4.70;99.90
20141;DHT22;10231;47.702;9.826;2022-12-18T03:24:15;-4.70;99.90
20141;DHT22;10231;47.702;9.826;2022-12-18T03:26:44;-4.70;99.90
20141;DHT22;10231;47.702;9.826;2022-12-18T03:29:21;-4.80;99.90
20141;DHT22;10231;47.702;9.826;2022-12-18T03:31:58;-4.80;99.90
20141;DHT22;10231;47.702;9.826;2022-12-18T03:34:36;-4.70;99.90
20141;DHT22;10231;47.702;9.826;2022-12-18T03:37:04;-4.80;99.90
20141;DHT22;10231;47.702;9.826;2022-12-18T03:39:30;-4.70;99.90
20141;DHT22;10231;47.702;9.826;2022-12-18T03:44:57;-4.70;99.90
20141;DHT22;10231;47.702;9.826;2022-12-18T03:50:43;-4.70;99.90
20141;DHT22;10231;47.702;9.826;2022-12-18T03:55:58;-4.70;99.90
20141;DHT22;10231;47.702;9.826;2022-12-18T03:58:26;-4.70;99.90
20141;DHT22;10231;47.702;9.826;2022-12-18T04:00:55;-4.70;99.90
20141;DHT22;10231;47.702;9.826;2022-12-18T04:03:23;-4.70;99.90
20141;DHT22;10231;47.702;9.826;2022-12-18T04:05:51;-4.80;99.90
20141;DHT22;10231;47.702;9.826;2022-12-18T04:08:17;-4.70;99.90
20141;DHT22;10231;47.702;9.826;2022-12-18T04:10:44;-4.70;99.90
20141;DHT22;10231;47.702;9.826;2022-12-18T04:13:09;-4.80;99.90
20141;DHT22;10231;47.702;9.826;2022-12-18T04:15:36;-4.80;99.90
20141;DHT22;10231;47.702;9.826;2022-12-18T04:18:02;-4.80;99.90
20141;DHT22;10231;47.702;9.826;2022-12-18T04:20:29;-4.80;99.90
20141;DHT22;10231;47.702;9.826;2022-12-18T04:22:54;-4.80;99.90
20141;DHT22;10231;47.702;9.826;2022-12-18T04:25:20;-4.80;99.90
20141;DHT22;10231;47.702;9.826;2022-12-18T04:27:45;-4.90;99.90
20141;DHT22;10231;47.702;9.826;2022-12-18T04:30:11;-4.90;99.90
20141;DHT22;10231;47.702;9.826;2022-12-18T04:32:36;-4.90;99.90
20141;DHT22;10231;47.702;9.826;2022-12-18T04:35:03;-4.90;99.90
20141;DHT22;10231;47.702;9.826;2022-12-18T04:37:29;-4.80;99.90
20141;DHT22;10231;47.702;9.826;2022-12-18T04:39:55;-4.90;99.90
20141;DHT22;10231;47.702;9.826;2022-12-18T04:42:20;-4.80;99.90
20141;DHT22;10231;47.702;9.826;2022-12-18T04:44:46;-4.80;99.90
20141;DHT22;10231;47.702;9.826;2022-12-18T04:47:12;-4.90;99.90
20141;DHT22;10231;47.702;9.826;2022-12-18T04:49:37;-4.80;99.90
20141;DHT22;10231;47.702;9.826;2022-12-18T04:52:03;-4.80;99.90
20141;DHT22;10231;47.702;9.826;2022-12-18T04:54:28;-4.80;99.90
20141;DHT22;10231;47.702;9.826;2022-12-18T04:56:54;-4.70;99.90
20141;DHT22;10231;47.702;9.826;2022-12-18T04:59:19;-4.70;99.90
20141;DHT22;10231;47.702;9.826;2022-12-18T05:01:45;-4.80;99.90
20141;DHT22;10231;47.702;9.826;2022-12-18T05:04:11;-4.80;99.90
20141;DHT22;10231;47.702;9.826;2022-12-18T05:06:36;-4.90;99.90
20141;DHT22;10231;47.702;9.826;2022-12-18T05:09:02;-4.90;99.90
20141;DHT22;10231;47.702;9.826;2022-12-18T05:11:28;-4.90;99.90
20141;DHT22;10231;47.702;9.826;2022-12-18T05:13:53;-4.90;99.90
20141;DHT22;10231;47.702;9.826;2022-12-18T05:16:19;-4.90;99.90
20141;DHT22;10231;47.702;9.826;2022-12-18T05:18:44;-4.80;99.90
20141;DHT22;10231;47.702;9.826;2022-12-18T05:21:10;-4.90;99.90
20141;DHT22;10231;47.702;9.826;2022-12-18T05:23:36;-5.00;99.90
20141;DHT22;10231;47.702;9.826;2022-12-18T05:26:04;-5.00;99.90
20141;DHT22;10231;47.702;9.826;2022-12-18T05:28:32;-5.00;99.90
20141;DHT22;10231;47.702;9.826;2022-12-18T05:31:00;-5.10;99.90
20141;DHT22;10231;47.702;9.826;2022-12-18T05:33:28;-4.90;99.90
20141;DHT22;10231;47.702;9.826;2022-12-18T05:35:56;-5.00;99.90
20141;DHT22;10231;47.702;9.826;2022-12-18T05:38:24;-5.10;99.90
20141;DHT22;10231;47.702;9.826;2022-12-18T05:40:50;-5.10;99.90
20141;DHT22;10231;47.702;9.826;2022-12-18T05:43:17;-5.10;99.90
20141;DHT22;10231;47.702;9.826;2022-12-18T05:45:43;-5.30;99.90
20141;DHT22;10231;47.702;9.826;2022-12-18T05:48:09;-5.30;99.90
20141;DHT22;10231;47.702;9.826;2022-12-18T05:50:36;-5.30;99.90
20141;DHT22;10231;47.702;9.826;2022-12-18T05:53:03;-5.20;99.90
20141;DHT22;10231;47.702;9.826;2022-12-18T05:55:29;-5.20;99.90
20141;DHT22;10231;47.702;9.826;2022-12-18T05:57:54;-5.20;99.90
20141;DHT22;10231;47.702;9.826;2022-12-18T06:00:20;-5.20;99.90
20141;DHT22;10231;47.702;9.826;2022-12-18T06:02:49;-5.20;99.90
20141;DHT22;10231;47.702;9.826;2022-12-18T06:05:14;-5.20;99.90
20141;DHT22;10231;47.702;9.826;2022-12-18T06:07:40;-5.30;99.90
20141;DHT22;10231;47.702;9.826;2022-12-18T06:10:06;-5.30;99.90
20141;DHT22;10231;47.702;9.826;2022-12-18T06:12:32;-5.30;99.90
20141;DHT22;10231;47.702;9.826;2022-12-18T06:14:59;-5.30;99.90
20141;DHT22;10231;47.702;9.826;2022-12-18T06:17:31;-5.30;99.90
20141;DHT22;10231;47.702;9.826;2022-12-18T06:19:57;-5.30;99.90
20141;DHT22;10231;47.702;9.826;2022-12-18T06:22:23;-5.20;99.90
20141;DHT22;10231;47.702;9.826;2022-12-18T06:24:49;-5.20;99.90
20141;DHT22;10231;47.702;9.826;2022-12-18T06:27:14;-5.10;99.90
20141;DHT22;10231;47.702;9.826;2022-12-18T06:29:40;-5.20;99.90
20141;DHT22;10231;47.702;9.826;2022-12-18T06:32:06;-5.10;99.90
20141;DHT22;10231;47.702;9.826;2022-12-18T06:34:32;-5.20;99.90
20141;DHT22;10231;47.702;9.826;2022-12-18T06:36:58;-5.20;99.90
20141;DHT22;10231;47.702;9.826;2022-12-18T06:39:24;-5.20;99.90
20141;DHT22;10231;47.702;9.826;2022-12-18T06:41:49;-5.20;99.90
20141;DHT22;10231;47.702;9.826;2022-12-18T06:44:15;-5.20;99.90
20141;DHT22;10231;47.702;9.826;2022-12-18T06:46:40;-5.20;99.90
20141;DHT22;10231;47.702;9.826;2022-12-18T06:49:06;-5.20;99.90
20141;DHT22;10231;47.702;9.826;2022-12-18T06:51:34;-5.20;99.90
20141;DHT22;10231;47.702;9.826;2022-12-18T06:53:59;-5.10;99.90
20141;DHT22;10231;47.702;9.826;2022-12-18T06:56:25;-5.10;99.90
20141;DHT22;10231;47.702;9.826;2022-12-18T06:58:51;-5.00;99.90
20141;DHT22;10231;47.702;9.826;2022-12-18T07:01:17;-5.00;99.90
20141;DHT22;10231;47.702;9.826;2022-12-18T07:03:42;-4.90;99.90
20141;DHT22;10231;47.702;9.826;2022-12-18T07:06:19;-4.90;99.90
20141;DHT22;10231;47.702;9.826;2022-12-18T07:08:46;-4.90;99.90
20141;DHT22;10231;47.702;9.826;2022-12-18T07:11:12;-4.90;99.90
20141;DHT22;10231;47.702;9.826;2022-12-18T07:13:37;-4.90;99.90
20141;DHT22;10231;47.702;9.826;2022-12-18T07:16:11;-4.90;99.90
20141;DHT22;10231;47.702;9.826;2022-12-18T07:18:37;-5.00;99.90
20141;DHT22;10231;47.702;9.826;2022-12-18T07:21:08;-5.00;99.90
20141;DHT22;10231;47.702;9.826;2022-12-18T07:23:34;-5.00;99.90
20141;DHT22;10231;47.702;9.826;2022-12-18T07:26:02;-4.90;99.90
20141;DHT22;10231;47.702;9.826;2022-12-18T07:28:28;-4.90;99.90
20141;DHT22;10231;47.702;9.826;2022-12-18T07:30:54;-4.80;99.90
20141;DHT22;10231;47.702;9.826;2022-12-18T07:33:19;-4.80;99.90
20141;DHT22;10231;47.702;9.826;2022-12-18T07:35:45;-4.80;99.90
20141;DHT22;10231;47.702;9.826;2022-12-18T07:38:10;-4.80;99.90
20141;DHT22;10231;47.702;9.826;2022-12-18T07:40:36;-4.70;99.90
20141;DHT22;10231;47.702;9.826;2022-12-18T07:43:02;-4.70;99.90
20141;DHT22;10231;47.702;9.826;2022-12-18T07:45:27;-4.90;99.90
20141;DHT22;10231;47.702;9.826;2022-12-18T07:47:53;-4.90;99.90
20141;DHT22;10231;47.702;9.826;2022-12-18T07:50:18;-4.90;99.90
20141;DHT22;10231;47.702;9.826;2022-12-18T07:52:44;-4.80;99.90
20141;DHT22;10231;47.702;9.826;2022-12-18T07:55:09;-4.80;99.90
20141;DHT22;10231;47.702;9.826;2022-12-18T07:57:35;-4.90;99.90
20141;DHT22;10231;47.702;9.826;2022-12-18T08:00:00;-4.90;99.90
20141;DHT22;10231;47.702;9.826;2022-12-18T08:02:26;-4.80;99.90
20141;DHT22;10231;47.702;9.826;2022-12-18T08:04:51;-4.60;99.90
20141;DHT22;10231;47.702;9.826;2022-12-18T08:07:17;-4.60;99.90
20141;DHT22;10231;47.702;9.826;2022-12-18T08:09:42;-4.70;99.90
20141;DHT22;10231;47.702;9.826;2022-12-18T08:12:08;-4.70;99.90
20141;DHT22;10231;47.702;9.826;2022-12-18T08:14:34;-4.70;99.90
20141;DHT22;10231;47.702;9.826;2022-12-18T08:16:59;-4.70;99.90
20141;DHT22;10231;47.702;9.826;2022-12-18T08:19:25;-4.70;99.90
20141;DHT22;10231;47.702;9.826;2022-12-18T08:21:50;-4.70;99.90
20141;DHT22;10231;47.702;9.826;2022-12-18T08:24:16;-4.60;99.90
20141;DHT22;10231;47.702;9.826;2022-12-18T08:26:41;-4.60;99.90
20141;DHT22;10231;47.702;9.826;2022-12-18T08:29:08;-4.50;99.90
20141;DHT22;10231;47.702;9.826;2022-12-18T08:31:34;-4.40;99.90
20141;DHT22;10231;47.702;9.826;2022-12-18T08:33:59;-4.30;99.90
20141;DHT22;10231;47.702;9.826;2022-12-18T08:36:25;-4.30;99.90
20141;DHT22;10231;47.702;9.826;2022-12-18T08:38:51;-4.20;99.90
20141;DHT22;10231;47.702;9.826;2022-12-18T08:41:17;-4.20;99.90
20141;DHT22;10231;47.702;9.826;2022-12-18T08:43:43;-4.20;99.90
20141;DHT22;10231;47.702;9.826;2022-12-18T08:46:35;-4.20;99.90
20141;DHT22;10231;47.702;9.826;2022-12-18T08:49:02;-4.20;99.90
20141;DHT22;10231;47.702;9.826;2022-12-18T08:51:27;-4.10;99.90
20141;DHT22;10231;47.702;9.826;2022-12-18T08:53:53;-4.10;99.90
20141;DHT22;10231;47.702;9.826;2022-12-18T08:56:18;-4.20;99.90
20141;DHT22;10231;47.702;9.826;2022-12-18T08:58:44;-4.10;99.90
20141;DHT22;10231;47.702;9.826;2022-12-18T09:01:12;-4.10;99.90
20141;DHT22;10231;47.702;9.826;2022-12-18T09:03:38;-4.20;99.90
20141;DHT22;10231;47.702;9.826;2022-12-18T09:06:04;-4.10;99.90
20141;DHT22;10231;47.702;9.826;2022-12-18T09:08:30;-4.10;99.90
20141;DHT22;10231;47.702;9.826;2022-12-18T09:10:56;-4.00;99.90
20141;DHT22;10231;47.702;9.826;2022-12-18T09:13:22;-3.90;99.90
20141;DHT22;10231;47.702;9.826;2022-12-18T09:15:53;-3.90;99.90
20141;DHT22;10231;47.702;9.826;2022-12-18T09:18:20;-3.90;99.90
20141;DHT22;10231;47.702;9.826;2022-12-18T09:20:47;-3.80;99.90
20141;DHT22;10231;47.702;9.826;2022-12-18T09:23:13;-3.70;99.90
20141;DHT22;10231;47.702;9.826;2022-12-18T09:25:39;-3.70;99.90
20141;DHT22;10231;47.702;9.826;2022-12-18T09:30:30;-3.80;99.90
20141;DHT22;10231;47.702;9.826;2022-12-18T09:32:58;-3.70;99.90
20141;DHT22;10231;47.702;9.826;2022-12-18T09:35:24;-3.70;99.90
20141;DHT22;10231;47.702;9.826;2022-12-18T09:37:49;-3.60;99.90
20141;DHT22;10231;47.702;9.826;2022-12-18T09:40:18;-3.70;99.90
20141;DHT22;10231;47.702;9.826;2022-12-18T09:43:00;-3.50;99.90
20141;DHT22;10231;47.702;9.826;2022-12-18T09:45:31;-3.50;99.90
20141;DHT22;10231;47.702;9.826;2022-12-18T09:48:01;-3.50;99.90
20141;DHT22;10231;47.702;9.826;2022-12-18T09:50:34;-3.50;99.90
20141;DHT22;10231;47.702;9.826;2022-12-18T09:53:05;-3.40;99.90
20141;DHT22;10231;47.702;9.826;2022-12-18T09:55:37;-3.40;99.90
20141;DHT22;10231;47.702;9.826;2022-12-18T09:58:31;-3.30;99.90
20141;DHT22;10231;47.702;9.826;2022-12-18T10:00:57;-3.20;99.90
20141;DHT22;10231;47.702;9.826;2022-12-18T10:03:23;-3.20;99.90
20141;DHT22;10231;47.702;9.826;2022-12-18T10:09:03;-3.20;99.90
20141;DHT22;10231;47.702;9.826;2022-12-18T10:24:30;-2.90;99.90
20141;DHT22;10231;47.702;9.826;2022-12-18T10:29:37;-2.90;99.90
20141;DHT22;10231;47.702;9.826;2022-12-18T10:32:02;-2.80;99.90
20141;DHT22;10231;47.702;9.826;2022-12-18T10:34:28;-2.80;99.90
20141;DHT22;10231;47.702;9.826;2022-12-18T10:36:54;-2.80;99.90
20141;DHT22;10231;47.702;9.826;2022-12-18T10:39:23;-2.80;99.90
20141;DHT22;10231;47.702;9.826;2022-12-18T10:41:49;-2.70;99.90
20141;DHT22;10231;47.702;9.826;2022-12-18T10:44:18;-2.70;99.90
20141;DHT22;10231;47.702;9.826;2022-12-18T10:47:05;-2.70;99.90
20141;DHT22;10231;47.702;9.826;2022-12-18T10:49:33;-2.70;99.90
20141;DHT22;10231;47.702;9.826;2022-12-18T10:52:14;-2.70;99.90
20141;DHT22;10231;47.702;9.826;2022-12-18T10:54:57;-2.80;99.90
20141;DHT22;10231;47.702;9.826;2022-12-18T10:59:53;-2.80;99.90
20141;DHT22;10231;47.702;9.826;2022-12-18T11:02:36;-2.80;99.90
20141;DHT22;10231;47.702;9.826;2022-12-18T11:05:04;-2.90;99.90
20141;DHT22;10231;47.702;9.826;2022-12-18T11:07:49;-2.80;99.90
20141;DHT22;10231;47.702;9.826;2022-12-18T11:10:20;-2.60;99.90
20141;DHT22;10231;47.702;9.826;2022-12-18T11:12:47;-2.60;99.90
20141;DHT22;10231;47.702;9.826;2022-12-18T11:15:29;-2.60;99.90
20141;DHT22;10231;47.702;9.826;2022-12-18T11:17:55;-2.60;99.90
20141;DHT22;10231;47.702;9.826;2022-12-18T11:20:33;-2.60;99.90
20141;DHT22;10231;47.702;9.826;2022-12-18T11:23:02;-2.50;99.90
20141;DHT22;10231;47.702;9.826;2022-12-18T11:25:28;-2.60;99.90
20141;DHT22;10231;47.702;9.826;2022-12-18T11:28:00;-2.60;99.90
20141;DHT22;10231;47.702;9.826;2022-12-18T11:30:32;-2.50;99.90
20141;DHT22;10231;47.702;9.826;2022-12-18T11:33:03;-2.50;99.90
20141;DHT22;10231;47.702;9.826;2022-12-18T11:38:21;-2.60;99.90
20141;DHT22;10231;47.702;9.826;2022-12-18T11:43:54;-2.50;99.90
20141;DHT22;10231;47.702;9.826;2022-12-18T11:46:36;-2.50;99.90
20141;DHT22;10231;47.702;9.826;2022-12-18T11:49:22;-2.60;99.90
20141;DHT22;10231;47.702;9.826;2022-12-18T11:52:06;-2.60;99.90
20141;DHT22;10231;47.702;9.826;2022-12-18T11:54:34;-2.50;99.90
20141;DHT22;10231;47.702;9.826;2022-12-18T12:00:00;-2.50;99.90
20141;DHT22;10231;47.702;9.826;2022-12-18T12:07:55;-2.50;99.90
20141;DHT22;10231;47.702;9.826;2022-12-18T12:20:59;-2.50;99.90
20141;DHT22;10231;47.702;9.826;2022-12-18T12:23:43;-2.50;99.90
20141;DHT22;10231;47.702;9.826;2022-12-18T12:26:38;-2.50;99.90
20141;DHT22;10231;47.702;9.826;2022-12-18T12:29:15;-2.40;99.90
20141;DHT22;10231;47.702;9.826;2022-12-18T12:34:27;-2.20;99.90
20141;DHT22;10231;47.702;9.826;2022-12-18T12:39:42;-2.10;99.90
20141;DHT22;10231;47.702;9.826;2022-12-18T12:42:38;-2.10;99.90
20141;DHT22;10231;47.702;9.826;2022-12-18T12:48:07;-2.20;99.90
20141;DHT22;10231;47.702;9.826;2022-12-18T12:50:36;-2.20;99.90
20141;DHT22;10231;47.702;9.826;2022-12-18T12:53:07;-2.30;99.90
20141;DHT22;10231;47.702;9.826;2022-12-18T12:55:34;-2.30;99.90
20141;DHT22;10231;47.702;9.826;2022-12-18T13:01:01;-2.40;99.90
20141;DHT22;10231;47.702;9.826;2022-12-18T13:03:58;-2.40;99.90
20141;DHT22;10231;47.702;9.826;2022-12-18T13:06:41;-2.50;99.90
20141;DHT22;10231;47.702;9.826;2022-12-18T13:09:07;-2.40;99.90
20141;DHT22;10231;47.702;9.826;2022-12-18T13:11:41;-2.40;99.90
20141;DHT22;10231;47.702;9.826;2022-12-18T13:14:40;-2.40;99.90
20141;DHT22;10231;47.702;9.826;2022-12-18T13:19:51;-2.40;99.90
20141;DHT22;10231;47.702;9.826;2022-12-18T13:22:34;-2.30;99.90
20141;DHT22;10231;47.702;9.826;2022-12-18T13:25:00;-2.20;99.90
20141;DHT22;10231;47.702;9.826;2022-12-18T13:35:41;-2.20;99.90
20141;DHT22;10231;47.702;9.826;2022-12-18T13:38:24;-2.10;99.90
20141;DHT22;10231;47.702;9.826;2022-12-18T13:40:59;-2.10;99.90
20141;DHT22;10231;47.702;9.826;2022-12-18T13:43:31;-2.10;99.90
20141;DHT22;10231;47.702;9.826;2022-12-18T13:48:36;-2.40;99.90
20141;DHT22;10231;47.702;9.826;2022-12-18T13:51:06;-2.50;99.90
20141;DHT22;10231;47.702;9.826;2022-12-18T13:53:43;-2.40;99.90
20141;DHT22;10231;47.702;9.826;2022-12-18T13:56:15;-2.40;99.90
20141;DHT22;10231;47.702;9.826;2022-12-18T13:58:41;-2.40;99.90
20141;DHT22;10231;47.702;9.826;2022-12-18T14:01:22;-2.30;99.90
20141;DHT22;10231;47.702;9.826;2022-12-18T14:03:48;-2.30;99.90
20141;DHT22;10231;47.702;9.826;2022-12-18T14:06:13;-2.40;99.90
20141;DHT22;10231;47.702;9.826;2022-12-18T14:08:41;-2.40;99.90
20141;DHT22;10231;47.702;9.826;2022-12-18T14:11:20;-2.30;99.90
20141;DHT22;10231;47.702;9.826;2022-12-18T14:13:47;-2.30;99.90
20141;DHT22;10231;47.702;9.826;2022-12-18T14:16:14;-2.20;99.90
20141;DHT22;10231;47.702;9.826;2022-12-18T14:21:29;-2.10;99.90
20141;DHT22;10231;47.702;9.826;2022-12-18T14:24:19;-2.10;99.90
20141;DHT22;10231;47.702;9.826;2022-12-18T14:26:46;-2.10;99.90
20141;DHT22;10231;47.702;9.826;2022-12-18T14:29:24;-1.90;99.90
20141;DHT22;10231;47.702;9.826;2022-12-18T14:32:10;-1.90;99.90
20141;DHT22;10231;47.702;9.826;2022-12-18T14:34:36;-1.90;99.90
20141;DHT22;10231;47.702;9.826;2022-12-18T14:37:02;-1.90;99.90
20141;DHT22;10231;47.702;9.826;2022-12-18T14:39:28;-1.80;99.90
20141;DHT22;10231;47.702;9.826;2022-12-18T14:41:53;-1.80;99.90
20141;DHT22;10231;47.702;9.826;2022-12-18T14:44:19;-1.90;99.90
20141;DHT22;10231;47.702;9.826;2022-12-18T14:46:47;-2.00;99.90
20141;DHT22;10231;47.702;9.826;2022-12-18T14:52:05;-2.00;99.90
20141;DHT22;10231;47.702;9.826;2022-12-18T14:54:32;-1.90;99.90
20141;DHT22;10231;47.702;9.826;2022-12-18T14:57:00;-1.90;99.90
20141;DHT22;10231;47.702;9.826;2022-12-18T14:59:26;-1.90;99.90
20141;DHT22;10231;47.702;9.826;2022-12-18T15:02:18;-1.90;99.90
20141;DHT22;10231;47.702;9.826;2022-12-18T15:04:45;-1.90;99.90
20141;DHT22;10231;47.702;9.826;2022-12-18T15:09:37;-2.10;99.90
20141;DHT22;10231;47.702;9.826;2022-12-18T15:12:04;-2.10;99.90
20141;DHT22;10231;47.702;9.826;2022-12-18T15:16:56;-2.30;99.90
20141;DHT22;10231;47.702;9.826;2022-12-18T15:19:32;-2.30;99.90
20141;DHT22;10231;47.702;9.826;2022-12-18T15:21:58;-2.30;99.90
20141;DHT22;10231;47.702;9.826;2022-12-18T15:24:27;-2.40;99.90
20141;DHT22;10231;47.702;9.826;2022-12-18T15:26:54;-2.50;99.90
20141;DHT22;10231;47.702;9.826;2022-12-18T15:29:21;-2.60;99.90
20141;DHT22;10231;47.702;9.826;2022-12-18T15:32:02;-2.70;99.90
20141;DHT22;10231;47.702;9.826;2022-12-18T15:34:29;-2.80;99.90
20141;DHT22;10231;47.702;9.826;2022-12-18T15:36:55;-2.90;99.90
20141;DHT22;10231;47.702;9.826;2022-12-18T15:39:20;-3.00;99.90
20141;DHT22;10231;47.702;9.826;2022-12-18T15:41:46;-2.90;99.90
20141;DHT22;10231;47.702;9.826;2022-12-18T15:44:30;-3.00;99.90
20141;DHT22;10231;47.702;9.826;2022-12-18T15:46:57;-2.80;99.90
20141;DHT22;10231;47.702;9.826;2022-12-18T15:49:22;-2.90;99.90
20141;DHT22;10231;47.702;9.826;2022-12-18T15:51:54;-2.80;99.90
20141;DHT22;10231;47.702;9.826;2022-12-18T15:54:21;-2.90;99.90
20141;DHT22;10231;47.702;9.826;2022-12-18T15:57:10;-2.90;99.90
20141;DHT22;10231;47.702;9.826;2022-12-18T15:59:55;-3.10;99.90
20141;DHT22;10231;47.702;9.826;2022-12-18T16:02:25;-3.20;99.90
20141;DHT22;10231;47.702;9.826;2022-12-18T16:04:51;-3.30;99.90
20141;DHT22;10231;47.702;9.826;2022-12-18T16:07:17;-3.40;99.90
20141;DHT22;10231;47.702;9.826;2022-12-18T16:09:43;-3.00;99.90
20141;DHT22;10231;47.702;9.826;2022-12-18T16:12:16;-3.30;99.90
20141;DHT22;10231;47.702;9.826;2022-12-18T16:14:42;-3.30;99.90
20141;DHT22;10231;47.702;9.826;2022-12-18T16:17:12;-3.20;99.90
20141;DHT22;10231;47.702;9.826;2022-12-18T16:19:37;-3.40;99.90
20141;DHT22;10231;47.702;9.826;2022-12-18T16:22:03;-3.50;99.90
20141;DHT22;10231;47.702;9.826;2022-12-18T16:24:31;-3.50;99.90
20141;DHT22;10231;47.702;9.826;2022-12-18T16:26:58;-3.60;99.90
20141;DHT22;10231;47.702;9.826;2022-12-18T16:29:25;-3.60;99.90
20141;DHT22;10231;47.702;9.826;2022-12-18T16:31:53;-3.60;99.90
20141;DHT22;10231;47.702;9.826;2022-12-18T16:34:24;-3.60;99.90
20141;DHT22;10231;47.702;9.826;2022-12-18T16:37:01;-3.60;99.90
20141;DHT22;10231;47.702;9.826;2022-12-18T16:39:28;-3.70;99.90
20141;DHT22;10231;47.702;9.826;2022-12-18T16:41:53;-3.70;99.90
20141;DHT22;10231;47.702;9.826;2022-12-18T16:44:19;-3.80;99.90
20141;DHT22;10231;47.702;9.826;2022-12-18T16:46:46;-3.90;99.90
20141;DHT22;10231;47.702;9.826;2022-12-18T16:49:13;-3.90;99.90
20141;DHT22;10231;47.702;9.826;2022-12-18T16:51:39;-3.80;99.90
20141;DHT22;10231;47.702;9.826;2022-12-18T16:54:05;-3.80;99.90
20141;DHT22;10231;47.702;9.826;2022-12-18T16:56:31;-3.90;99.90
20141;DHT22;10231;47.702;9.826;2022-12-18T16:58:59;-3.80;99.90
20141;DHT22;10231;47.702;9.826;2022-12-18T17:01:26;-3.90;99.90
20141;DHT22;10231;47.702;9.826;2022-12-18T17:04:03;-4.00;99.90
20141;DHT22;10231;47.702;9.826;2022-12-18T17:06:31;-4.00;99.90
20141;DHT22;10231;47.702;9.826;2022-12-18T17:09:02;-4.00;99.90
20141;DHT22;10231;47.702;9.826;2022-12-18T17:11:30;-4.00;99.90
20141;DHT22;10231;47.702;9.826;2022-12-18T17:13:56;-3.90;99.90
20141;DHT22;10231;47.702;9.826;2022-12-18T17:16:22;-4.00;99.90
20141;DHT22;10231;47.702;9.826;2022-12-18T17:18:48;-3.90;99.90
20141;DHT22;10231;47.702;9.826;2022-12-18T17:21:14;-4.00;99.90
20141;DHT22;10231;47.702;9.826;2022-12-18T17:23:43;-4.00;99.90
20141;DHT22;10231;47.702;9.826;2022-12-18T17:26:10;-4.00;99.90
20141;DHT22;10231;47.702;9.826;2022-12-18T17:28:38;-3.90;99.90
20141;DHT22;10231;47.702;9.826;2022-12-18T17:31:30;-3.90;99.90
20141;DHT22;10231;47.702;9.826;2022-12-18T17:33:56;-3.90;99.90
20141;DHT22;10231;47.702;9.826;2022-12-18T17:36:23;-4.00;99.90
20141;DHT22;10231;47.702;9.826;2022-12-18T17:38:54;-4.10;99.90